createdAt,value
2019-06-15T00:01:12.090Z,20.30
2019-06-15T00:03:57.132Z,20.40
2019-06-15T00:06:42.148Z,20.40
2019-06-15T00:09:27.379Z,20.40
2019-06-15T00:12:12.103Z,20.50
2019-06-15T00:14:57.454Z,20.50
2019-06-15T00:17:42.389Z,20.50
2019-06-15T00:20:31.982Z,20.50
2019-06-15T00:23:16.800Z,20.50
2019-06-15T00:26:02.959Z,20.50
2019-06-15T00:28:48.056Z,20.40
2019-06-15T00:31:32.855Z,20.20
2019-06-15T00:34:17.710Z,20.20
2019-06-15T00:37:04.804Z,20.00
2019-06-15T00:39:50.978Z,19.90
2019-06-15T00:42:35.949Z,19.80
2019-06-15T00:45:22.485Z,19.50
2019-06-15T00:48:07.550Z,19.50
2019-06-15T00:50:52.504Z,19.40
2019-06-15T00:53:37.288Z,19.30
2019-06-15T00:56:22.220Z,19.20
2019-06-15T00:59:07.088Z,19.00
2019-06-15T01:01:52.065Z,18.80
2019-06-15T01:04:37.898Z,18.70
2019-06-15T01:07:22.838Z,18.70
2019-06-15T01:10:08.544Z,18.60
2019-06-15T01:12:53.601Z,18.60
2019-06-15T01:15:38.813Z,18.60
2019-06-15T01:18:23.410Z,18.60
2019-06-15T01:21:08.621Z,18.60
2019-06-15T01:23:53.753Z,18.60
2019-06-15T01:26:38.657Z,18.60
2019-06-15T01:29:23.565Z,18.40
2019-06-15T01:32:08.495Z,18.40
2019-06-15T01:34:53.327Z,18.40
2019-06-15T01:37:38.389Z,18.40
2019-06-15T01:40:25.050Z,18.40
2019-06-15T01:43:10.006Z,18.30
2019-06-15T01:45:55.205Z,18.30
2019-06-15T01:48:40.058Z,18.20
2019-06-15T01:51:24.958Z,18.10
2019-06-15T01:54:09.977Z,18.10
2019-06-15T01:56:56.114Z,18.10
2019-06-15T01:59:40.905Z,18.10
2019-06-15T02:02:25.630Z,18.00
2019-06-15T02:05:10.867Z,18.00
2019-06-15T02:07:57.062Z,18.00
2019-06-15T02:10:42.174Z,18.00
2019-06-15T02:13:27.383Z,18.00
2019-06-15T02:16:12.128Z,17.90
2019-06-15T02:18:58.163Z,17.70
2019-06-15T02:21:42.723Z,17.60
2019-06-15T02:24:27.830Z,17.50
2019-06-15T02:27:12.735Z,17.50
2019-06-15T02:29:57.921Z,17.50
2019-06-15T02:32:42.861Z,17.50
2019-06-15T02:35:28.139Z,17.50
2019-06-15T02:38:13.240Z,17.60
2019-06-15T02:40:57.983Z,17.60
2019-06-15T02:43:43.250Z,17.60
2019-06-15T02:46:28.314Z,17.70
2019-06-15T02:49:13.053Z,17.70
2019-06-15T02:51:58.334Z,17.70
2019-06-15T02:54:43.099Z,17.60
2019-06-15T02:57:28.133Z,17.60
2019-06-15T03:00:16.675Z,17.50
2019-06-15T03:03:02.023Z,17.50
2019-06-15T03:05:47.009Z,17.50
2019-06-15T03:08:32.358Z,17.50
2019-06-15T03:11:17.379Z,17.50
2019-06-15T03:14:03.653Z,17.40
2019-06-15T03:16:48.759Z,17.30
2019-06-15T03:19:34.032Z,17.20
2019-06-15T03:22:18.992Z,17.10
2019-06-15T03:25:05.574Z,17.20
2019-06-15T03:27:50.729Z,17.20
2019-06-15T03:30:38.174Z,17.20
2019-06-15T03:33:23.393Z,17.20
2019-06-15T03:36:08.187Z,17.20
2019-06-15T03:38:53.180Z,17.10
2019-06-15T03:41:38.417Z,17.10
2019-06-15T03:44:23.084Z,17.10
2019-06-15T03:47:08.115Z,17.10
2019-06-15T03:49:52.898Z,17.10
2019-06-15T03:52:37.777Z,17.20
2019-06-15T03:55:22.598Z,17.20
2019-06-15T03:58:07.711Z,17.20
2019-06-15T04:01:02.013Z,17.20
2019-06-15T04:03:46.800Z,17.20
2019-06-15T04:06:31.674Z,17.20
2019-06-15T04:09:16.469Z,17.20
2019-06-15T04:12:01.226Z,17.30
2019-06-15T04:14:46.494Z,17.30
2019-06-15T04:17:31.362Z,17.40
2019-06-15T04:20:16.495Z,17.50
2019-06-15T04:23:03.169Z,17.50
2019-06-15T04:25:48.107Z,17.50
2019-06-15T04:28:32.817Z,17.60
2019-06-15T04:31:17.773Z,17.60
2019-06-15T04:34:22.528Z,17.70
2019-06-15T04:37:07.598Z,17.70
2019-06-15T04:39:52.416Z,17.80
2019-06-15T04:42:37.318Z,17.90
2019-06-15T04:45:22.102Z,18.00
2019-06-15T04:48:07.147Z,18.10
2019-06-15T04:50:51.942Z,18.10
2019-06-15T04:53:36.796Z,18.20
2019-06-15T04:56:21.711Z,18.20
2019-06-15T04:59:06.456Z,18.30
2019-06-15T05:01:51.403Z,18.40
2019-06-15T05:04:36.247Z,18.50
2019-06-15T05:07:20.949Z,18.60
2019-06-15T05:10:06.609Z,18.60
2019-06-15T05:12:51.457Z,18.60
2019-06-15T05:15:36.398Z,18.60
2019-06-15T05:18:21.272Z,18.70
2019-06-15T05:21:06.097Z,18.70
2019-06-15T05:23:51.269Z,18.80
2019-06-15T05:26:36.297Z,18.90
2019-06-15T05:29:21.033Z,18.90
2019-06-15T05:32:05.931Z,18.90
2019-06-15T05:34:50.947Z,18.90
2019-06-15T05:37:36.041Z,19.00
2019-06-15T05:40:20.839Z,19.00
2019-06-15T05:43:05.727Z,19.00
2019-06-15T05:45:50.412Z,19.10
2019-06-15T05:48:35.432Z,19.20
2019-06-15T05:51:20.166Z,19.20
2019-06-15T05:54:04.817Z,19.30
2019-06-15T05:56:50.153Z,19.30
2019-06-15T05:59:34.948Z,19.40
2019-06-15T06:02:22.596Z,19.50
2019-06-15T06:05:07.813Z,19.60
2019-06-15T06:07:53.054Z,19.70
2019-06-15T06:10:37.698Z,19.80
2019-06-15T06:13:22.708Z,19.90
2019-06-15T06:16:07.491Z,20.10
2019-06-15T06:18:52.382Z,20.10
2019-06-15T06:21:37.547Z,20.20
2019-06-15T06:24:22.558Z,20.20
2019-06-15T06:27:07.573Z,20.30
2019-06-15T06:29:52.223Z,20.30
2019-06-15T06:32:37.201Z,20.30
2019-06-15T06:35:22.463Z,20.30
2019-06-15T06:38:07.376Z,20.20
2019-06-15T06:40:52.948Z,20.20
2019-06-15T06:43:37.711Z,20.10
2019-06-15T06:46:22.667Z,20.10
2019-06-15T06:49:07.346Z,20.20
2019-06-15T06:51:52.067Z,20.10
2019-06-15T06:54:36.861Z,20.20
2019-06-15T06:57:21.788Z,20.10
2019-06-15T07:00:07.726Z,20.10
2019-06-15T07:02:52.708Z,20.10
2019-06-15T07:05:37.785Z,20.20
2019-06-15T07:08:22.602Z,20.30
2019-06-15T07:11:07.377Z,20.30
2019-06-15T07:13:52.273Z,20.30
2019-06-15T07:16:37.045Z,20.30
2019-06-15T07:19:21.992Z,20.30
2019-06-15T07:22:07.524Z,20.40
2019-06-15T07:24:52.842Z,20.50
2019-06-15T07:27:37.604Z,20.50
2019-06-15T07:30:23.118Z,20.40
2019-06-15T07:33:08.573Z,20.40
2019-06-15T07:35:53.578Z,20.40
2019-06-15T07:38:38.355Z,20.30
2019-06-15T07:41:23.251Z,20.20
2019-06-15T07:44:08.573Z,20.20
2019-06-15T07:46:53.365Z,20.10
2019-06-15T07:49:38.382Z,20.00
2019-06-15T07:52:23.189Z,19.90
2019-06-15T07:55:08.544Z,20.00
2019-06-15T07:57:53.799Z,20.00
2019-06-15T08:00:38.906Z,20.10
2019-06-15T08:03:23.560Z,20.10
2019-06-15T08:06:08.599Z,20.20
2019-06-15T08:08:54.251Z,20.20
2019-06-15T08:11:39.618Z,20.30
2019-06-15T08:14:26.547Z,20.40
2019-06-15T08:17:12.558Z,20.60
2019-06-15T08:19:57.771Z,20.60
2019-06-15T08:22:43.113Z,20.60
2019-06-15T08:25:29.671Z,20.60
2019-06-15T08:28:15.059Z,20.70
2019-06-15T08:31:00.868Z,20.70
2019-06-15T08:33:45.823Z,20.80
2019-06-15T08:36:30.847Z,20.80
2019-06-15T08:39:15.831Z,20.70
2019-06-15T08:42:01.159Z,20.80
2019-06-15T08:44:46.099Z,20.80
2019-06-15T08:47:30.905Z,20.90
2019-06-15T08:50:15.962Z,21.00
2019-06-15T08:53:01.964Z,21.00
2019-06-15T08:55:47.586Z,21.10
2019-06-15T08:58:32.492Z,21.10
2019-06-15T09:01:17.369Z,21.10
2019-06-15T09:04:03.038Z,21.00
2019-06-15T09:06:48.235Z,21.00
2019-06-15T09:09:33.721Z,21.10
2019-06-15T09:12:20.967Z,21.30
2019-06-15T09:15:07.371Z,21.40
2019-06-15T09:17:52.513Z,21.50
2019-06-15T09:20:37.322Z,21.50
2019-06-15T09:23:22.335Z,21.50
2019-06-15T09:26:07.087Z,21.70
2019-06-15T09:28:53.646Z,21.60
2019-06-15T09:31:38.805Z,21.50
2019-06-15T09:34:25.037Z,21.40
2019-06-15T09:37:10.429Z,21.30
2019-06-15T09:39:55.469Z,21.20
2019-06-15T09:42:40.723Z,21.30
2019-06-15T09:45:26.051Z,21.50
2019-06-15T09:48:11.293Z,21.60
2019-06-15T09:50:55.962Z,21.70
2019-06-15T09:53:40.793Z,21.70
2019-06-15T09:56:25.654Z,21.60
2019-06-15T09:59:22.855Z,21.60
2019-06-15T10:01:57.714Z,21.60
2019-06-15T10:04:42.898Z,21.60
2019-06-15T10:07:28.088Z,21.50
2019-06-15T10:10:15.381Z,21.40
2019-06-15T10:13:00.468Z,21.30
2019-06-15T10:15:46.018Z,21.30
2019-06-15T10:18:31.166Z,21.30
2019-06-15T10:21:15.993Z,21.30
2019-06-15T10:24:01.159Z,21.40
2019-06-15T10:26:45.944Z,21.50
2019-06-15T10:29:41.694Z,21.60
2019-06-15T10:32:18.571Z,21.80
2019-06-15T10:35:04.181Z,21.80
2019-06-15T10:37:49.621Z,21.80
2019-06-15T10:40:34.427Z,21.80
2019-06-15T10:43:20.792Z,21.90
2019-06-15T10:46:05.724Z,22.20
2019-06-15T10:48:51.122Z,22.60
2019-06-15T10:51:36.584Z,22.80
2019-06-15T10:54:23.295Z,23.00
2019-06-15T10:57:09.861Z,23.30
2019-06-15T10:59:57.709Z,23.40
2019-06-15T11:02:42.151Z,23.50
2019-06-15T11:05:27.537Z,23.60
2019-06-15T11:08:12.329Z,23.50
2019-06-15T11:11:03.995Z,23.50
2019-06-15T11:13:50.278Z,23.30
2019-06-15T11:16:35.381Z,23.20
2019-06-15T11:19:20.460Z,23.00
2019-06-15T11:22:09.063Z,22.90
2019-06-15T11:24:54.129Z,22.80
2019-06-15T11:27:39.963Z,22.70
2019-06-15T11:30:25.625Z,22.60
2019-06-15T11:33:10.719Z,22.60
2019-06-15T11:35:56.201Z,22.80
2019-06-15T11:38:41.515Z,23.10
2019-06-15T11:41:26.705Z,23.40
2019-06-15T11:44:12.185Z,23.70
2019-06-15T11:46:57.966Z,23.90
2019-06-15T11:49:43.210Z,23.90
2019-06-15T11:52:28.653Z,23.60
2019-06-15T11:55:14.043Z,23.20
2019-06-15T11:57:59.109Z,23.00
2019-06-15T12:00:44.097Z,22.70
2019-06-15T12:03:29.585Z,22.40
2019-06-15T12:06:15.700Z,22.30
2019-06-15T12:09:00.998Z,22.10
2019-06-15T12:11:46.181Z,22.10
2019-06-15T12:14:31.779Z,22.10
2019-06-15T12:17:17.621Z,22.30
2019-06-15T12:20:04.738Z,22.60
2019-06-15T12:22:50.068Z,22.90
2019-06-15T12:25:35.045Z,23.20
2019-06-15T12:28:20.466Z,23.20
2019-06-15T12:31:07.223Z,23.40
2019-06-15T12:33:52.145Z,23.40
2019-06-15T12:36:37.123Z,23.20
2019-06-15T12:39:22.610Z,22.90
2019-06-15T12:42:07.724Z,22.70
2019-06-15T12:44:53.155Z,22.50
2019-06-15T12:47:39.285Z,22.40
2019-06-15T12:50:24.559Z,22.40
2019-06-15T12:53:11.296Z,22.30
2019-06-15T12:55:57.686Z,22.60
2019-06-15T12:58:42.965Z,23.70
2019-06-15T13:01:28.101Z,24.80
2019-06-15T13:04:13.424Z,25.00
2019-06-15T13:06:58.424Z,24.50
2019-06-15T13:09:44.006Z,24.00
2019-06-15T13:12:29.251Z,24.20
2019-06-15T13:15:14.503Z,24.40
2019-06-15T13:17:59.711Z,24.10
2019-06-15T13:20:44.511Z,23.80
2019-06-15T13:23:29.353Z,23.50
2019-06-15T13:26:14.295Z,23.70
2019-06-15T13:28:59.885Z,24.40
2019-06-15T13:31:45.169Z,24.90
2019-06-15T13:34:30.222Z,24.90
2019-06-15T13:37:15.784Z,25.00
2019-06-15T13:40:02.512Z,25.00
2019-06-15T13:42:47.486Z,25.10
2019-06-15T13:45:32.480Z,25.60
2019-06-15T13:48:17.621Z,25.90
2019-06-15T13:51:02.815Z,25.90
2019-06-15T13:53:47.959Z,25.80
2019-06-15T13:56:33.737Z,25.60
2019-06-15T13:59:19.638Z,25.50
2019-06-15T14:02:04.861Z,25.50
2019-06-15T14:04:50.167Z,25.60
2019-06-15T14:07:34.896Z,25.80
2019-06-15T14:10:20.374Z,25.70
2019-06-15T14:13:05.354Z,25.90
2019-06-15T14:15:50.176Z,26.30
2019-06-15T14:18:35.100Z,26.80
2019-06-15T14:21:20.742Z,27.00
2019-06-15T14:24:05.702Z,26.70
2019-06-15T14:26:50.541Z,26.60
2019-06-15T14:29:35.545Z,26.20
2019-06-15T14:32:20.449Z,26.10
2019-06-15T14:35:07.047Z,25.80
2019-06-15T14:37:52.143Z,25.60
2019-06-15T14:40:37.065Z,25.60
2019-06-15T14:43:21.787Z,25.80
2019-06-15T14:46:07.320Z,25.70
2019-06-15T14:48:52.352Z,25.70
2019-06-15T14:51:37.721Z,25.80
2019-06-15T14:54:23.069Z,25.80
2019-06-15T14:57:08.000Z,26.00
2019-06-15T15:00:01.517Z,26.10
2019-06-15T15:02:40.460Z,26.30
2019-06-15T15:05:27.452Z,26.20
2019-06-15T15:08:12.817Z,26.30
2019-06-15T15:10:57.495Z,26.70
2019-06-15T15:13:42.941Z,26.80
2019-06-15T15:16:28.290Z,27.00
2019-06-15T15:19:13.160Z,27.10
2019-06-15T15:21:58.061Z,27.30
2019-06-15T15:24:42.909Z,27.10
2019-06-15T15:27:28.309Z,27.20
2019-06-15T15:30:16.812Z,27.00
2019-06-15T15:33:02.027Z,27.10
2019-06-15T15:35:47.584Z,27.30
2019-06-15T15:38:32.759Z,27.60
2019-06-15T15:41:17.994Z,27.70
2019-06-15T15:44:03.351Z,28.00
2019-06-15T15:46:48.216Z,28.40
2019-06-15T15:49:36.643Z,28.60
2019-06-15T15:52:21.338Z,29.00
2019-06-15T15:55:08.419Z,29.00
2019-06-15T15:57:56.122Z,29.40
2019-06-15T16:00:40.740Z,29.50
2019-06-15T16:03:26.447Z,29.50
2019-06-15T16:06:12.012Z,29.50
2019-06-15T16:08:57.041Z,29.40
2019-06-15T16:11:42.266Z,29.90
2019-06-15T16:14:26.964Z,29.90
2019-06-15T16:17:11.879Z,29.50
2019-06-15T16:20:19.214Z,29.60
2019-06-15T16:23:07.192Z,29.40
2019-06-15T16:25:51.301Z,29.50
2019-06-15T16:28:36.874Z,29.60
2019-06-15T16:31:25.854Z,30.30
2019-06-15T16:34:09.015Z,30.30
2019-06-15T16:36:54.190Z,30.40
2019-06-15T16:39:39.028Z,30.20
2019-06-15T16:42:26.859Z,30.30
2019-06-15T16:45:11.939Z,30.40
2019-06-15T16:47:57.230Z,30.30
2019-06-15T16:50:42.176Z,30.30
2019-06-15T16:53:27.496Z,29.40
2019-06-15T16:56:13.025Z,29.30
2019-06-15T16:58:57.729Z,29.50
2019-06-15T17:01:42.757Z,29.50
2019-06-15T17:04:27.923Z,29.20
2019-06-15T17:07:12.885Z,28.30
2019-06-15T17:09:58.461Z,27.70
2019-06-15T17:12:43.402Z,26.90
2019-06-15T17:15:28.588Z,26.20
2019-06-15T17:18:14.244Z,25.60
2019-06-15T17:20:59.674Z,25.20
2019-06-15T17:23:46.737Z,24.80
2019-06-15T17:26:32.308Z,24.30
2019-06-15T17:29:17.818Z,24.10
2019-06-15T17:32:03.049Z,24.00
2019-06-15T17:34:48.468Z,23.90
2019-06-15T17:37:36.198Z,23.80
2019-06-15T17:40:21.124Z,23.70
2019-06-15T17:43:06.602Z,23.60
2019-06-15T17:45:51.829Z,23.50
2019-06-15T17:48:37.471Z,23.40
2019-06-15T17:51:23.693Z,23.30
2019-06-15T17:54:08.729Z,23.30
2019-06-15T17:56:53.726Z,23.20
2019-06-15T17:59:39.138Z,23.20
2019-06-15T18:02:26.158Z,23.00
2019-06-15T18:05:10.981Z,23.00
2019-06-15T18:07:59.602Z,22.90
2019-06-15T18:10:42.913Z,22.80
2019-06-15T18:13:27.775Z,22.60
2019-06-15T18:16:12.958Z,22.50
2019-06-15T18:18:58.083Z,22.40
2019-06-15T18:21:43.065Z,22.20
2019-06-15T18:24:28.561Z,22.20
2019-06-15T18:27:16.749Z,22.10
2019-06-15T18:30:01.183Z,22.10
2019-06-15T18:32:48.053Z,22.10
2019-06-15T18:35:36.101Z,22.10
2019-06-15T18:38:21.619Z,22.10
2019-06-15T18:41:07.282Z,22.10
2019-06-15T18:43:56.399Z,22.00
2019-06-15T18:46:41.385Z,21.90
2019-06-15T18:49:26.769Z,21.90
2019-06-15T18:52:11.819Z,21.90
2019-06-15T18:54:56.876Z,21.80
2019-06-15T18:57:43.228Z,21.70
2019-06-15T19:00:28.461Z,21.60
2019-06-15T19:03:16.534Z,21.50
2019-06-15T19:06:00.648Z,21.40
2019-06-15T19:08:47.783Z,21.40
2019-06-15T19:11:32.551Z,21.30
2019-06-15T19:14:17.811Z,21.10
2019-06-15T19:17:06.042Z,21.00
2019-06-15T19:19:51.448Z,20.90
2019-06-15T19:22:36.850Z,20.70
2019-06-15T19:25:21.994Z,20.70
2019-06-15T19:28:06.815Z,20.50
2019-06-15T19:30:52.298Z,20.40
2019-06-15T19:33:37.681Z,20.30
2019-06-15T19:36:22.970Z,20.20
2019-06-15T19:39:08.083Z,20.10
2019-06-15T19:41:53.339Z,20.00
2019-06-15T19:44:38.519Z,20.00
2019-06-15T19:47:23.314Z,19.90
2019-06-15T19:50:09.952Z,19.90
2019-06-15T19:52:56.538Z,19.80
2019-06-15T19:55:42.389Z,19.80
2019-06-15T19:58:27.848Z,19.70
2019-06-15T20:01:12.729Z,19.70
2019-06-15T20:03:58.067Z,19.50
2019-06-15T20:06:43.232Z,19.30
2019-06-15T20:09:28.584Z,19.20
2019-06-15T20:12:19.040Z,19.10
2019-06-15T20:15:00.848Z,19.00
2019-06-15T20:17:46.222Z,18.90
2019-06-15T20:20:33.159Z,18.90
2019-06-15T20:23:18.251Z,18.80
2019-06-15T20:26:03.398Z,18.70
2019-06-15T20:28:48.592Z,18.60
2019-06-15T20:31:33.933Z,18.50
2019-06-15T20:34:20.408Z,18.40
2019-06-15T20:37:05.644Z,18.30
2019-06-15T20:39:57.388Z,18.20
2019-06-15T20:42:45.969Z,18.20
2019-06-15T20:45:31.581Z,18.10
2019-06-15T20:48:17.273Z,18.10
2019-06-15T20:51:06.668Z,18.00
2019-06-15T20:53:50.764Z,18.00
2019-06-15T20:56:37.366Z,18.00
2019-06-15T20:59:22.266Z,18.00
2019-06-15T21:02:07.632Z,18.00
2019-06-15T21:04:52.622Z,18.00
2019-06-15T21:07:37.457Z,17.90
2019-06-15T21:10:22.898Z,17.80
2019-06-15T21:13:07.570Z,17.70
2019-06-15T21:15:52.575Z,17.60
2019-06-15T21:18:37.796Z,17.60
2019-06-15T21:21:23.980Z,17.60
2019-06-15T21:24:09.717Z,17.60
2019-06-15T21:26:56.369Z,17.50
2019-06-15T21:29:41.379Z,17.50
2019-06-15T21:32:26.328Z,17.40
2019-06-15T21:35:11.587Z,17.40
2019-06-15T21:37:58.227Z,17.30
2019-06-15T21:40:42.933Z,17.20
2019-06-15T21:43:28.042Z,17.10
2019-06-15T21:46:12.714Z,17.00
2019-06-15T21:48:58.133Z,16.80
2019-06-15T21:51:43.202Z,16.80
2019-06-15T21:54:27.931Z,16.90
2019-06-15T21:57:12.932Z,16.80
2019-06-15T21:59:57.561Z,16.90
2019-06-15T22:02:42.608Z,16.80
2019-06-15T22:05:27.546Z,16.60
2019-06-15T22:08:12.311Z,16.50
2019-06-15T22:10:57.589Z,16.50
2019-06-15T22:13:42.706Z,16.40
2019-06-15T22:16:27.752Z,16.40
2019-06-15T22:19:12.753Z,16.30
2019-06-15T22:21:58.070Z,16.30
2019-06-15T22:24:42.822Z,16.30
2019-06-15T22:27:28.090Z,16.30
2019-06-15T22:30:13.292Z,16.30
2019-06-15T22:32:58.163Z,16.30
2019-06-15T22:35:42.923Z,16.30
2019-06-15T22:38:27.754Z,16.20
2019-06-15T22:41:13.376Z,16.00
2019-06-15T22:43:59.725Z,15.90
2019-06-15T22:46:46.462Z,15.90
2019-06-15T22:49:31.733Z,15.80
2019-06-15T22:52:17.219Z,15.80
2019-06-15T22:55:06.094Z,15.80
2019-06-15T22:57:51.011Z,15.70
2019-06-15T23:00:37.556Z,15.70
2019-06-15T23:03:22.891Z,15.70
2019-06-15T23:06:07.770Z,15.70
2019-06-15T23:08:52.695Z,15.70
2019-06-15T23:11:37.462Z,15.70
2019-06-15T23:14:26.153Z,15.70
2019-06-15T23:17:11.248Z,15.80
2019-06-15T23:19:57.140Z,15.70
2019-06-15T23:22:42.038Z,15.60
2019-06-15T23:25:27.445Z,15.60
2019-06-15T23:28:12.943Z,15.60
2019-06-15T23:30:58.229Z,15.60
2019-06-15T23:33:42.923Z,15.60
2019-06-15T23:36:52.048Z,15.50
2019-06-15T23:39:22.477Z,15.40
2019-06-15T23:42:07.171Z,15.40
2019-06-15T23:44:52.030Z,15.40
2019-06-15T23:47:37.027Z,15.40
2019-06-15T23:50:22.427Z,15.40
2019-06-15T23:53:07.396Z,15.40
2019-06-15T23:55:52.104Z,15.40
2019-06-15T23:58:38.966Z,15.40
